sensor_id;sensor_type;location;lat;lon;timestamp;P1;durP1;ratioP1;P2;durP2;ratioP2
71298;SDS011;59083;47.974;21.722;2022-10-22T00:00:44;18.67;;;8.45;;
71298;SDS011;59083;47.974;21.722;2022-10-22T00:03:46;16.42;;;8.05;;
71298;SDS011;59083;47.974;21.722;2022-10-22T00:06:47;17.93;;;8.33;;
71298;SDS011;59083;47.974;21.722;2022-10-22T00:09:48;17.05;;;8.15;;
71298;SDS011;59083;47.974;21.722;2022-10-22T00:12:49;15.05;;;7.93;;
71298;SDS011;59083;47.974;21.722;2022-10-22T00:15:51;19.00;;;8.27;;
71298;SDS011;59083;47.974;21.722;2022-10-22T00:18:52;15.87;;;8.33;;
71298;SDS011;59083;47.974;21.722;2022-10-22T00:21:53;17.13;;;8.10;;
71298;SDS011;59083;47.974;21.722;2022-10-22T00:24:54;16.48;;;7.65;;
71298;SDS011;59083;47.974;21.722;2022-10-22T00:27:56;17.05;;;8.00;;
71298;SDS011;59083;47.974;21.722;2022-10-22T00:30:58;15.88;;;8.00;;
71298;SDS011;59083;47.974;21.722;2022-10-22T00:34:00;17.67;;;8.07;;
71298;SDS011;59083;47.974;21.722;2022-10-22T00:37:02;16.03;;;7.90;;
71298;SDS011;59083;47.974;21.722;2022-10-22T00:40:03;16.37;;;7.68;;
71298;SDS011;59083;47.974;21.722;2022-10-22T00:43:08;18.23;;;7.87;;
71298;SDS011;59083;47.974;21.722;2022-10-22T00:46:14;16.80;;;7.80;;
71298;SDS011;59083;47.974;21.722;2022-10-22T00:49:15;17.53;;;7.80;;
71298;SDS011;59083;47.974;21.722;2022-10-22T00:52:16;14.20;;;8.00;;
71298;SDS011;59083;47.974;21.722;2022-10-22T00:55:18;15.50;;;7.50;;
71298;SDS011;59083;47.974;21.722;2022-10-22T00:58:21;18.10;;;8.30;;
71298;SDS011;59083;47.974;21.722;2022-10-22T01:01:27;17.10;;;8.00;;
71298;SDS011;59083;47.974;21.722;2022-10-22T01:04:30;18.00;;;8.27;;
71298;SDS011;59083;47.974;21.722;2022-10-22T01:07:31;16.47;;;7.87;;
71298;SDS011;59083;47.974;21.722;2022-10-22T01:14:04;19.55;;;8.52;;
71298;SDS011;59083;47.974;21.722;2022-10-22T01:27:08;16.35;;;7.85;;
71298;SDS011;59083;47.974;21.722;2022-10-22T01:30:20;22.92;;;8.65;;
71298;SDS011;59083;47.974;21.722;2022-10-22T01:33:21;20.55;;;8.63;;
71298;SDS011;59083;47.974;21.722;2022-10-22T01:36:26;17.70;;;8.50;;
71298;SDS011;59083;47.974;21.722;2022-10-22T01:39:29;18.17;;;8.70;;
71298;SDS011;59083;47.974;21.722;2022-10-22T01:42:31;16.27;;;8.30;;
71298;SDS011;59083;47.974;21.722;2022-10-22T01:45:34;16.80;;;8.38;;
71298;SDS011;59083;47.974;21.722;2022-10-22T02:05:30;16.60;;;8.20;;
71298;SDS011;59083;47.974;21.722;2022-10-22T02:08:32;16.67;;;8.90;;
71298;SDS011;59083;47.974;21.722;2022-10-22T02:11:35;19.97;;;8.77;;
71298;SDS011;59083;47.974;21.722;2022-10-22T02:14:38;17.98;;;7.93;;
71298;SDS011;59083;47.974;21.722;2022-10-22T02:17:44;17.05;;;8.27;;
71298;SDS011;59083;47.974;21.722;2022-10-22T02:20:46;17.70;;;8.30;;
71298;SDS011;59083;47.974;21.722;2022-10-22T02:23:48;19.97;;;8.80;;
71298;SDS011;59083;47.974;21.722;2022-10-22T02:27:11;15.33;;;7.70;;
71298;SDS011;59083;47.974;21.722;2022-10-22T02:30:18;19.23;;;8.68;;
71298;SDS011;59083;47.974;21.722;2022-10-22T02:33:24;33.08;;;12.60;;
71298;SDS011;59083;47.974;21.722;2022-10-22T02:36:28;25.75;;;14.95;;
71298;SDS011;59083;47.974;21.722;2022-10-22T02:39:29;29.50;;;17.43;;
71298;SDS011;59083;47.974;21.722;2022-10-22T02:42:32;27.93;;;15.67;;
71298;SDS011;59083;47.974;21.722;2022-10-22T02:45:34;21.48;;;12.27;;
71298;SDS011;59083;47.974;21.722;2022-10-22T02:48:36;18.87;;;10.50;;
71298;SDS011;59083;47.974;21.722;2022-10-22T02:51:37;20.02;;;10.07;;
71298;SDS011;59083;47.974;21.722;2022-10-22T02:54:39;22.93;;;10.30;;
71298;SDS011;59083;47.974;21.722;2022-10-22T02:57:40;20.07;;;9.80;;
71298;SDS011;59083;47.974;21.722;2022-10-22T03:00:41;18.30;;;9.38;;
71298;SDS011;59083;47.974;21.722;2022-10-22T03:03:42;19.83;;;9.75;;
71298;SDS011;59083;47.974;21.722;2022-10-22T03:06:44;20.88;;;9.23;;
71298;SDS011;59083;47.974;21.722;2022-10-22T03:09:48;18.20;;;9.07;;
71298;SDS011;59083;47.974;21.722;2022-10-22T03:12:49;17.30;;;8.63;;
71298;SDS011;59083;47.974;21.722;2022-10-22T03:15:50;18.83;;;8.63;;
71298;SDS011;59083;47.974;21.722;2022-10-22T03:18:52;19.55;;;8.32;;
71298;SDS011;59083;47.974;21.722;2022-10-22T03:21:54;17.85;;;8.23;;
71298;SDS011;59083;47.974;21.722;2022-10-22T03:25:01;16.50;;;8.67;;
71298;SDS011;59083;47.974;21.722;2022-10-22T03:28:07;20.93;;;8.37;;
71298;SDS011;59083;47.974;21.722;2022-10-22T03:31:13;21.35;;;8.77;;
71298;SDS011;59083;47.974;21.722;2022-10-22T03:34:15;16.35;;;8.55;;
71298;SDS011;59083;47.974;21.722;2022-10-22T03:37:16;17.45;;;7.95;;
71298;SDS011;59083;47.974;21.722;2022-10-22T03:40:17;17.53;;;8.10;;
71298;SDS011;59083;47.974;21.722;2022-10-22T03:43:20;18.17;;;7.90;;
71298;SDS011;59083;47.974;21.722;2022-10-22T03:46:21;22.23;;;8.32;;
71298;SDS011;59083;47.974;21.722;2022-10-22T03:49:22;18.02;;;8.07;;
71298;SDS011;59083;47.974;21.722;2022-10-22T03:52:23;16.90;;;8.15;;
71298;SDS011;59083;47.974;21.722;2022-10-22T03:55:25;20.60;;;7.87;;
71298;SDS011;59083;47.974;21.722;2022-10-22T03:58:26;15.40;;;7.80;;
71298;SDS011;59083;47.974;21.722;2022-10-22T04:01:28;15.50;;;7.53;;
71298;SDS011;59083;47.974;21.722;2022-10-22T04:04:30;17.10;;;8.27;;
71298;SDS011;59083;47.974;21.722;2022-10-22T04:07:31;18.17;;;8.02;;
71298;SDS011;59083;47.974;21.722;2022-10-22T04:10:32;14.80;;;7.40;;
71298;SDS011;59083;47.974;21.722;2022-10-22T04:13:34;17.00;;;8.23;;
71298;SDS011;59083;47.974;21.722;2022-10-22T04:16:35;17.83;;;8.43;;
71298;SDS011;59083;47.974;21.722;2022-10-22T04:19:36;14.50;;;7.50;;
71298;SDS011;59083;47.974;21.722;2022-10-22T04:22:38;14.73;;;7.75;;
71298;SDS011;59083;47.974;21.722;2022-10-22T04:25:39;17.43;;;8.30;;
71298;SDS011;59083;47.974;21.722;2022-10-22T04:28:41;19.80;;;8.60;;
71298;SDS011;59083;47.974;21.722;2022-10-22T04:31:42;19.33;;;8.43;;
71298;SDS011;59083;47.974;21.722;2022-10-22T04:34:44;18.15;;;8.65;;
71298;SDS011;59083;47.974;21.722;2022-10-22T04:37:45;15.35;;;7.68;;
71298;SDS011;59083;47.974;21.722;2022-10-22T04:40:46;15.33;;;8.20;;
71298;SDS011;59083;47.974;21.722;2022-10-22T04:43:47;14.43;;;7.60;;
71298;SDS011;59083;47.974;21.722;2022-10-22T04:46:49;17.02;;;8.30;;
71298;SDS011;59083;47.974;21.722;2022-10-22T04:49:50;16.87;;;7.35;;
71298;SDS011;59083;47.974;21.722;2022-10-22T04:52:52;16.37;;;8.10;;
71298;SDS011;59083;47.974;21.722;2022-10-22T04:55:53;16.77;;;8.40;;
71298;SDS011;59083;47.974;21.722;2022-10-22T04:58:56;17.50;;;7.83;;
71298;SDS011;59083;47.974;21.722;2022-10-22T05:01:59;16.92;;;8.23;;
71298;SDS011;59083;47.974;21.722;2022-10-22T05:05:00;18.05;;;7.95;;
71298;SDS011;59083;47.974;21.722;2022-10-22T05:08:02;15.68;;;7.82;;
71298;SDS011;59083;47.974;21.722;2022-10-22T05:11:10;19.80;;;8.67;;
71298;SDS011;59083;47.974;21.722;2022-10-22T05:14:11;20.97;;;9.03;;
71298;SDS011;59083;47.974;21.722;2022-10-22T05:17:13;18.08;;;8.93;;
71298;SDS011;59083;47.974;21.722;2022-10-22T05:20:14;17.35;;;8.43;;
71298;SDS011;59083;47.974;21.722;2022-10-22T05:23:15;23.20;;;9.48;;
71298;SDS011;59083;47.974;21.722;2022-10-22T05:26:17;19.50;;;9.13;;
71298;SDS011;59083;47.974;21.722;2022-10-22T05:29:20;20.03;;;8.87;;
71298;SDS011;59083;47.974;21.722;2022-10-22T05:32:22;18.52;;;8.98;;
71298;SDS011;59083;47.974;21.722;2022-10-22T05:35:23;18.92;;;8.88;;
71298;SDS011;59083;47.974;21.722;2022-10-22T05:38:24;18.40;;;9.82;;
71298;SDS011;59083;47.974;21.722;2022-10-22T05:41:26;18.17;;;8.17;;
71298;SDS011;59083;47.974;21.722;2022-10-22T05:44:28;19.77;;;8.93;;
71298;SDS011;59083;47.974;21.722;2022-10-22T05:47:29;20.27;;;9.18;;
71298;SDS011;59083;47.974;21.722;2022-10-22T05:50:30;17.35;;;8.80;;
71298;SDS011;59083;47.974;21.722;2022-10-22T05:53:32;17.60;;;8.10;;
71298;SDS011;59083;47.974;21.722;2022-10-22T05:56:34;14.97;;;8.13;;
71298;SDS011;59083;47.974;21.722;2022-10-22T05:59:36;16.43;;;8.10;;
71298;SDS011;59083;47.974;21.722;2022-10-22T06:02:38;18.27;;;8.27;;
71298;SDS011;59083;47.974;21.722;2022-10-22T06:05:39;21.73;;;9.30;;
71298;SDS011;59083;47.974;21.722;2022-10-22T06:08:40;19.98;;;9.13;;
71298;SDS011;59083;47.974;21.722;2022-10-22T06:11:42;22.60;;;9.50;;
71298;SDS011;59083;47.974;21.722;2022-10-22T06:14:43;15.27;;;7.93;;
71298;SDS011;59083;47.974;21.722;2022-10-22T06:17:45;17.52;;;9.80;;
71298;SDS011;59083;47.974;21.722;2022-10-22T06:20:47;20.92;;;8.75;;
71298;SDS011;59083;47.974;21.722;2022-10-22T06:23:48;18.20;;;8.80;;
71298;SDS011;59083;47.974;21.722;2022-10-22T06:26:49;18.00;;;8.90;;
71298;SDS011;59083;47.974;21.722;2022-10-22T06:29:51;18.37;;;8.57;;
71298;SDS011;59083;47.974;21.722;2022-10-22T06:32:52;17.15;;;7.50;;
71298;SDS011;59083;47.974;21.722;2022-10-22T06:35:54;16.12;;;7.80;;
71298;SDS011;59083;47.974;21.722;2022-10-22T06:38:55;14.50;;;6.93;;
71298;SDS011;59083;47.974;21.722;2022-10-22T06:41:57;15.37;;;7.27;;
71298;SDS011;59083;47.974;21.722;2022-10-22T06:44:58;14.07;;;7.47;;
71298;SDS011;59083;47.974;21.722;2022-10-22T06:47:59;13.57;;;6.87;;
71298;SDS011;59083;47.974;21.722;2022-10-22T06:51:01;15.38;;;7.20;;
71298;SDS011;59083;47.974;21.722;2022-10-22T06:54:03;17.00;;;7.22;;
71298;SDS011;59083;47.974;21.722;2022-10-22T06:57:04;16.43;;;6.90;;
71298;SDS011;59083;47.974;21.722;2022-10-22T07:00:06;15.07;;;7.03;;
71298;SDS011;59083;47.974;21.722;2022-10-22T07:03:08;12.32;;;6.95;;
71298;SDS011;59083;47.974;21.722;2022-10-22T07:06:13;13.40;;;7.05;;
71298;SDS011;59083;47.974;21.722;2022-10-22T07:09:14;20.08;;;7.35;;
71298;SDS011;59083;47.974;21.722;2022-10-22T07:12:16;16.17;;;6.70;;
71298;SDS011;59083;47.974;21.722;2022-10-22T07:15:17;13.77;;;6.87;;
71298;SDS011;59083;47.974;21.722;2022-10-22T07:18:18;16.35;;;7.10;;
71298;SDS011;59083;47.974;21.722;2022-10-22T07:21:20;17.48;;;7.60;;
71298;SDS011;59083;47.974;21.722;2022-10-22T07:24:22;19.52;;;7.85;;
71298;SDS011;59083;47.974;21.722;2022-10-22T07:27:23;14.60;;;6.90;;
71298;SDS011;59083;47.974;21.722;2022-10-22T07:30:25;14.40;;;6.73;;
71298;SDS011;59083;47.974;21.722;2022-10-22T07:33:26;16.70;;;7.78;;
71298;SDS011;59083;47.974;21.722;2022-10-22T07:36:27;14.63;;;6.68;;
71298;SDS011;59083;47.974;21.722;2022-10-22T07:39:28;20.60;;;7.37;;
71298;SDS011;59083;47.974;21.722;2022-10-22T07:42:30;13.95;;;6.93;;
71298;SDS011;59083;47.974;21.722;2022-10-22T07:45:31;18.40;;;7.40;;
71298;SDS011;59083;47.974;21.722;2022-10-22T07:48:34;14.40;;;6.87;;
71298;SDS011;59083;47.974;21.722;2022-10-22T07:51:35;18.12;;;7.12;;
71298;SDS011;59083;47.974;21.722;2022-10-22T07:54:37;15.10;;;7.50;;
71298;SDS011;59083;47.974;21.722;2022-10-22T07:57:41;18.13;;;7.87;;
71298;SDS011;59083;47.974;21.722;2022-10-22T08:00:42;16.40;;;7.60;;
71298;SDS011;59083;47.974;21.722;2022-10-22T08:03:44;16.00;;;7.45;;
71298;SDS011;59083;47.974;21.722;2022-10-22T08:06:45;14.98;;;7.53;;
71298;SDS011;59083;47.974;21.722;2022-10-22T08:09:46;18.23;;;8.30;;
71298;SDS011;59083;47.974;21.722;2022-10-22T08:12:47;22.37;;;8.70;;
71298;SDS011;59083;47.974;21.722;2022-10-22T08:15:49;16.40;;;7.63;;
71298;SDS011;59083;47.974;21.722;2022-10-22T08:18:50;14.43;;;8.10;;
71298;SDS011;59083;47.974;21.722;2022-10-22T08:21:51;12.65;;;7.53;;
71298;SDS011;59083;47.974;21.722;2022-10-22T08:24:52;17.83;;;8.07;;
71298;SDS011;59083;47.974;21.722;2022-10-22T08:27:54;17.95;;;7.93;;
71298;SDS011;59083;47.974;21.722;2022-10-22T08:30:55;16.87;;;7.87;;
71298;SDS011;59083;47.974;21.722;2022-10-22T08:33:56;17.52;;;8.13;;
71298;SDS011;59083;47.974;21.722;2022-10-22T08:36:57;19.17;;;8.63;;
71298;SDS011;59083;47.974;21.722;2022-10-22T08:39:59;17.15;;;8.82;;
71298;SDS011;59083;47.974;21.722;2022-10-22T08:46:16;17.17;;;8.33;;
71298;SDS011;59083;47.974;21.722;2022-10-22T08:49:25;18.77;;;9.15;;
71298;SDS011;59083;47.974;21.722;2022-10-22T08:52:29;15.68;;;8.55;;
71298;SDS011;59083;47.974;21.722;2022-10-22T08:55:34;19.08;;;8.73;;
71298;SDS011;59083;47.974;21.722;2022-10-22T09:01:45;20.30;;;8.93;;
71298;SDS011;59083;47.974;21.722;2022-10-22T09:04:51;17.80;;;8.82;;
71298;SDS011;59083;47.974;21.722;2022-10-22T09:08:01;16.77;;;9.30;;
71298;SDS011;59083;47.974;21.722;2022-10-22T09:11:12;28.50;;;10.23;;
71298;SDS011;59083;47.974;21.722;2022-10-22T09:14:27;19.83;;;9.77;;
71298;SDS011;59083;47.974;21.722;2022-10-22T09:17:35;21.83;;;10.07;;
71298;SDS011;59083;47.974;21.722;2022-10-22T09:20:54;21.70;;;10.57;;
71298;SDS011;59083;47.974;21.722;2022-10-22T09:27:31;19.25;;;10.25;;
71298;SDS011;59083;47.974;21.722;2022-10-22T09:30:33;27.15;;;10.68;;
71298;SDS011;59083;47.974;21.722;2022-10-22T09:33:36;22.97;;;11.33;;
71298;SDS011;59083;47.974;21.722;2022-10-22T09:36:37;24.80;;;12.37;;
71298;SDS011;59083;47.974;21.722;2022-10-22T09:39:45;21.37;;;11.82;;
71298;SDS011;59083;47.974;21.722;2022-10-22T09:42:50;22.70;;;12.50;;
71298;SDS011;59083;47.974;21.722;2022-10-22T09:45:55;22.67;;;11.73;;
71298;SDS011;59083;47.974;21.722;2022-10-22T09:49:04;21.20;;;12.27;;
71298;SDS011;59083;47.974;21.722;2022-10-22T09:52:23;21.15;;;12.07;;
71298;SDS011;59083;47.974;21.722;2022-10-22T09:55:28;22.27;;;12.07;;
71298;SDS011;59083;47.974;21.722;2022-10-22T09:58:39;24.95;;;12.95;;
71298;SDS011;59083;47.974;21.722;2022-10-22T10:01:43;21.75;;;11.68;;
71298;SDS011;59083;47.974;21.722;2022-10-22T10:04:48;27.03;;;12.33;;
71298;SDS011;59083;47.974;21.722;2022-10-22T10:07:54;23.38;;;12.35;;
71298;SDS011;59083;47.974;21.722;2022-10-22T10:11:02;22.25;;;12.82;;
71298;SDS011;59083;47.974;21.722;2022-10-22T10:17:49;19.37;;;11.60;;
71298;SDS011;59083;47.974;21.722;2022-10-22T10:21:21;24.50;;;12.20;;
71298;SDS011;59083;47.974;21.722;2022-10-22T10:24:49;24.50;;;12.43;;
71298;SDS011;59083;47.974;21.722;2022-10-22T10:38:57;22.60;;;12.20;;
71298;SDS011;59083;47.974;21.722;2022-10-22T10:42:09;20.23;;;11.95;;
71298;SDS011;59083;47.974;21.722;2022-10-22T10:45:16;27.73;;;12.82;;
71298;SDS011;59083;47.974;21.722;2022-10-22T10:52:04;22.80;;;12.47;;
71298;SDS011;59083;47.974;21.722;2022-10-22T10:55:23;20.80;;;11.90;;
71298;SDS011;59083;47.974;21.722;2022-10-22T10:58:38;23.38;;;12.43;;
71298;SDS011;59083;47.974;21.722;2022-10-22T11:08:53;23.50;;;12.57;;
71298;SDS011;59083;47.974;21.722;2022-10-22T11:12:12;25.13;;;13.23;;
71298;SDS011;59083;47.974;21.722;2022-10-22T11:15:27;23.12;;;12.52;;
71298;SDS011;59083;47.974;21.722;2022-10-22T11:25:22;23.25;;;12.88;;
71298;SDS011;59083;47.974;21.722;2022-10-22T11:28:36;22.37;;;13.27;;
71298;SDS011;59083;47.974;21.722;2022-10-22T11:31:43;23.90;;;12.90;;
71298;SDS011;59083;47.974;21.722;2022-10-22T11:34:46;24.20;;;12.95;;
71298;SDS011;59083;47.974;21.722;2022-10-22T11:37:51;25.52;;;13.70;;
71298;SDS011;59083;47.974;21.722;2022-10-22T11:40:58;30.98;;;13.82;;
71298;SDS011;59083;47.974;21.722;2022-10-22T11:47:23;23.25;;;12.90;;
71298;SDS011;59083;47.974;21.722;2022-10-22T11:50:27;22.95;;;13.57;;
71298;SDS011;59083;47.974;21.722;2022-10-22T11:53:47;30.40;;;13.23;;
71298;SDS011;59083;47.974;21.722;2022-10-22T11:56:57;23.27;;;12.80;;
71298;SDS011;59083;47.974;21.722;2022-10-22T12:03:49;22.62;;;12.10;;
71298;SDS011;59083;47.974;21.722;2022-10-22T12:07:33;19.73;;;12.20;;
71298;SDS011;59083;47.974;21.722;2022-10-22T12:17:24;26.20;;;12.90;;
71298;SDS011;59083;47.974;21.722;2022-10-22T12:20:28;22.98;;;13.00;;
71298;SDS011;59083;47.974;21.722;2022-10-22T12:23:31;30.48;;;13.60;;
71298;SDS011;59083;47.974;21.722;2022-10-22T12:26:35;24.37;;;13.05;;
71298;SDS011;59083;47.974;21.722;2022-10-22T12:29:37;36.33;;;15.40;;
71298;SDS011;59083;47.974;21.722;2022-10-22T12:32:38;25.67;;;14.27;;
71298;SDS011;59083;47.974;21.722;2022-10-22T12:35:42;26.95;;;12.93;;
71298;SDS011;59083;47.974;21.722;2022-10-22T12:38:45;27.80;;;13.55;;
71298;SDS011;59083;47.974;21.722;2022-10-22T12:41:47;22.05;;;13.23;;
71298;SDS011;59083;47.974;21.722;2022-10-22T12:44:48;24.85;;;13.48;;
71298;SDS011;59083;47.974;21.722;2022-10-22T12:47:56;34.70;;;17.83;;
71298;SDS011;59083;47.974;21.722;2022-10-22T12:51:00;30.62;;;16.08;;
71298;SDS011;59083;47.974;21.722;2022-10-22T12:54:06;28.58;;;15.15;;
71298;SDS011;59083;47.974;21.722;2022-10-22T12:57:11;30.27;;;15.10;;
71298;SDS011;59083;47.974;21.722;2022-10-22T13:00:18;35.47;;;16.27;;
71298;SDS011;59083;47.974;21.722;2022-10-22T13:03:36;30.60;;;15.37;;
71298;SDS011;59083;47.974;21.722;2022-10-22T13:06:42;26.52;;;14.27;;
71298;SDS011;59083;47.974;21.722;2022-10-22T13:12:55;27.05;;;15.20;;
71298;SDS011;59083;47.974;21.722;2022-10-22T13:22:40;30.05;;;15.57;;
71298;SDS011;59083;47.974;21.722;2022-10-22T13:29:14;25.92;;;14.63;;
71298;SDS011;59083;47.974;21.722;2022-10-22T13:32:21;29.40;;;14.77;;
71298;SDS011;59083;47.974;21.722;2022-10-22T13:35:25;27.43;;;15.47;;
71298;SDS011;59083;47.974;21.722;2022-10-22T13:38:29;24.30;;;14.45;;
71298;SDS011;59083;47.974;21.722;2022-10-22T13:41:30;29.23;;;15.48;;
71298;SDS011;59083;47.974;21.722;2022-10-22T13:44:32;27.98;;;15.75;;
71298;SDS011;59083;47.974;21.722;2022-10-22T13:47:33;31.00;;;15.83;;
71298;SDS011;59083;47.974;21.722;2022-10-22T13:50:34;31.50;;;17.13;;
71298;SDS011;59083;47.974;21.722;2022-10-22T13:53:35;32.17;;;15.68;;
71298;SDS011;59083;47.974;21.722;2022-10-22T13:56:37;30.12;;;16.00;;
71298;SDS011;59083;47.974;21.722;2022-10-22T13:59:38;30.90;;;16.12;;
71298;SDS011;59083;47.974;21.722;2022-10-22T14:02:39;36.57;;;16.03;;
71298;SDS011;59083;47.974;21.722;2022-10-22T14:05:41;29.20;;;16.03;;
71298;SDS011;59083;47.974;21.722;2022-10-22T14:08:46;30.15;;;15.70;;
71298;SDS011;59083;47.974;21.722;2022-10-22T14:11:50;27.80;;;15.50;;
71298;SDS011;59083;47.974;21.722;2022-10-22T14:14:51;27.75;;;15.18;;
71298;SDS011;59083;47.974;21.722;2022-10-22T14:17:56;28.10;;;15.63;;
71298;SDS011;59083;47.974;21.722;2022-10-22T14:20:59;29.57;;;15.30;;
71298;SDS011;59083;47.974;21.722;2022-10-22T14:24:10;28.20;;;16.08;;
71298;SDS011;59083;47.974;21.722;2022-10-22T14:27:12;33.28;;;15.75;;
71298;SDS011;59083;47.974;21.722;2022-10-22T14:30:16;28.85;;;16.87;;
71298;SDS011;59083;47.974;21.722;2022-10-22T14:33:25;27.83;;;16.20;;
71298;SDS011;59083;47.974;21.722;2022-10-22T14:36:30;33.57;;;16.63;;
71298;SDS011;59083;47.974;21.722;2022-10-22T14:39:31;27.70;;;16.45;;
71298;SDS011;59083;47.974;21.722;2022-10-22T14:42:34;28.50;;;17.50;;
71298;SDS011;59083;47.974;21.722;2022-10-22T14:45:39;39.45;;;17.92;;
71298;SDS011;59083;47.974;21.722;2022-10-22T14:48:41;34.38;;;17.55;;
71298;SDS011;59083;47.974;21.722;2022-10-22T14:51:42;37.37;;;19.10;;
71298;SDS011;59083;47.974;21.722;2022-10-22T14:54:43;33.75;;;17.55;;
71298;SDS011;59083;47.974;21.722;2022-10-22T14:57:45;28.25;;;16.75;;
71298;SDS011;59083;47.974;21.722;2022-10-22T15:00:46;35.38;;;18.25;;
71298;SDS011;59083;47.974;21.722;2022-10-22T15:03:47;34.90;;;18.43;;
71298;SDS011;59083;47.974;21.722;2022-10-22T15:06:49;31.53;;;18.80;;
71298;SDS011;59083;47.974;21.722;2022-10-22T15:09:50;31.60;;;18.62;;
71298;SDS011;59083;47.974;21.722;2022-10-22T15:12:51;33.25;;;18.42;;
71298;SDS011;59083;47.974;21.722;2022-10-22T15:15:52;33.13;;;19.42;;
71298;SDS011;59083;47.974;21.722;2022-10-22T15:18:54;35.80;;;19.70;;
71298;SDS011;59083;47.974;21.722;2022-10-22T15:21:55;38.77;;;19.97;;
71298;SDS011;59083;47.974;21.722;2022-10-22T15:24:57;33.70;;;20.55;;
71298;SDS011;59083;47.974;21.722;2022-10-22T15:27:58;37.10;;;20.65;;
71298;SDS011;59083;47.974;21.722;2022-10-22T15:30:59;41.53;;;21.35;;
71298;SDS011;59083;47.974;21.722;2022-10-22T15:34:00;38.70;;;21.40;;
71298;SDS011;59083;47.974;21.722;2022-10-22T15:37:03;39.10;;;21.03;;
71298;SDS011;59083;47.974;21.722;2022-10-22T15:40:05;36.35;;;21.25;;
71298;SDS011;59083;47.974;21.722;2022-10-22T15:43:08;39.88;;;21.87;;
71298;SDS011;59083;47.974;21.722;2022-10-22T15:46:14;43.08;;;21.35;;
71298;SDS011;59083;47.974;21.722;2022-10-22T15:49:18;35.47;;;20.67;;
71298;SDS011;59083;47.974;21.722;2022-10-22T15:52:19;44.13;;;21.87;;
71298;SDS011;59083;47.974;21.722;2022-10-22T15:55:23;42.58;;;24.33;;
71298;SDS011;59083;47.974;21.722;2022-10-22T15:58:24;54.08;;;30.17;;
71298;SDS011;59083;47.974;21.722;2022-10-22T16:01:26;66.75;;;33.80;;
71298;SDS011;59083;47.974;21.722;2022-10-22T16:04:27;70.03;;;36.23;;
71298;SDS011;59083;47.974;21.722;2022-10-22T16:07:29;69.13;;;35.87;;
71298;SDS011;59083;47.974;21.722;2022-10-22T16:10:30;71.35;;;37.47;;
71298;SDS011;59083;47.974;21.722;2022-10-22T16:13:32;73.43;;;36.72;;
71298;SDS011;59083;47.974;21.722;2022-10-22T16:16:36;66.35;;;35.97;;
71298;SDS011;59083;47.974;21.722;2022-10-22T16:19:39;67.30;;;36.13;;
71298;SDS011;59083;47.974;21.722;2022-10-22T16:22:40;72.63;;;36.70;;
71298;SDS011;59083;47.974;21.722;2022-10-22T16:25:42;73.18;;;35.80;;
71298;SDS011;59083;47.974;21.722;2022-10-22T16:28:43;65.30;;;36.88;;
71298;SDS011;59083;47.974;21.722;2022-10-22T16:31:46;68.70;;;36.40;;
71298;SDS011;59083;47.974;21.722;2022-10-22T16:34:47;70.93;;;37.43;;
71298;SDS011;59083;47.974;21.722;2022-10-22T16:37:48;68.53;;;35.17;;
71298;SDS011;59083;47.974;21.722;2022-10-22T16:40:49;84.40;;;40.70;;
71298;SDS011;59083;47.974;21.722;2022-10-22T16:43:53;73.20;;;38.47;;
71298;SDS011;59083;47.974;21.722;2022-10-22T16:47:00;70.00;;;38.55;;
71298;SDS011;59083;47.974;21.722;2022-10-22T16:50:01;75.10;;;40.20;;
71298;SDS011;59083;47.974;21.722;2022-10-22T16:53:02;71.53;;;37.23;;
71298;SDS011;59083;47.974;21.722;2022-10-22T16:56:06;67.68;;;37.35;;
71298;SDS011;59083;47.974;21.722;2022-10-22T16:59:09;66.57;;;36.60;;
71298;SDS011;59083;47.974;21.722;2022-10-22T17:02:10;66.85;;;35.58;;
71298;SDS011;59083;47.974;21.722;2022-10-22T17:05:11;60.80;;;33.57;;
71298;SDS011;59083;47.974;21.722;2022-10-22T17:08:12;58.10;;;32.30;;
71298;SDS011;59083;47.974;21.722;2022-10-22T17:11:15;60.72;;;32.72;;
71298;SDS011;59083;47.974;21.722;2022-10-22T17:14:18;52.70;;;31.33;;
71298;SDS011;59083;47.974;21.722;2022-10-22T17:17:20;53.35;;;30.95;;
71298;SDS011;59083;47.974;21.722;2022-10-22T17:20:21;58.20;;;31.67;;
71298;SDS011;59083;47.974;21.722;2022-10-22T17:23:24;55.43;;;31.03;;
71298;SDS011;59083;47.974;21.722;2022-10-22T17:26:28;49.70;;;30.05;;
71298;SDS011;59083;47.974;21.722;2022-10-22T17:29:30;50.00;;;30.25;;
71298;SDS011;59083;47.974;21.722;2022-10-22T17:32:34;48.03;;;29.25;;
71298;SDS011;59083;47.974;21.722;2022-10-22T17:35:38;53.57;;;29.07;;
71298;SDS011;59083;47.974;21.722;2022-10-22T17:38:40;55.20;;;31.33;;
71298;SDS011;59083;47.974;21.722;2022-10-22T17:41:42;57.72;;;31.17;;
71298;SDS011;59083;47.974;21.722;2022-10-22T17:44:44;52.45;;;31.12;;
71298;SDS011;59083;47.974;21.722;2022-10-22T17:47:45;53.20;;;30.42;;
71298;SDS011;59083;47.974;21.722;2022-10-22T17:50:46;52.40;;;30.37;;
71298;SDS011;59083;47.974;21.722;2022-10-22T17:53:48;51.73;;;30.63;;
71298;SDS011;59083;47.974;21.722;2022-10-22T17:56:51;52.25;;;30.30;;
71298;SDS011;59083;47.974;21.722;2022-10-22T17:59:53;51.37;;;29.63;;
71298;SDS011;59083;47.974;21.722;2022-10-22T18:02:54;59.78;;;31.65;;
71298;SDS011;59083;47.974;21.722;2022-10-22T18:05:55;51.00;;;29.53;;
71298;SDS011;59083;47.974;21.722;2022-10-22T18:09:06;49.57;;;29.63;;
71298;SDS011;59083;47.974;21.722;2022-10-22T18:12:09;47.30;;;28.95;;
71298;SDS011;59083;47.974;21.722;2022-10-22T18:15:12;50.20;;;29.08;;
71298;SDS011;59083;47.974;21.722;2022-10-22T18:18:13;50.20;;;29.60;;
71298;SDS011;59083;47.974;21.722;2022-10-22T18:21:15;51.23;;;29.97;;
71298;SDS011;59083;47.974;21.722;2022-10-22T18:24:17;53.37;;;30.27;;
71298;SDS011;59083;47.974;21.722;2022-10-22T18:27:18;51.83;;;30.85;;
71298;SDS011;59083;47.974;21.722;2022-10-22T18:30:20;55.63;;;31.65;;
71298;SDS011;59083;47.974;21.722;2022-10-22T18:33:21;60.95;;;31.00;;
71298;SDS011;59083;47.974;21.722;2022-10-22T18:36:24;55.10;;;30.97;;
71298;SDS011;59083;47.974;21.722;2022-10-22T18:39:26;56.50;;;31.03;;
71298;SDS011;59083;47.974;21.722;2022-10-22T18:42:27;58.53;;;31.05;;
71298;SDS011;59083;47.974;21.722;2022-10-22T18:45:28;54.40;;;31.50;;
71298;SDS011;59083;47.974;21.722;2022-10-22T18:48:30;65.70;;;33.35;;
71298;SDS011;59083;47.974;21.722;2022-10-22T18:51:31;60.77;;;32.33;;
71298;SDS011;59083;47.974;21.722;2022-10-22T18:54:34;58.53;;;31.80;;
71298;SDS011;59083;47.974;21.722;2022-10-22T18:57:35;52.47;;;31.33;;
71298;SDS011;59083;47.974;21.722;2022-10-22T19:00:37;57.90;;;31.70;;
71298;SDS011;59083;47.974;21.722;2022-10-22T19:03:38;56.72;;;31.33;;
71298;SDS011;59083;47.974;21.722;2022-10-22T19:06:39;54.77;;;30.57;;
71298;SDS011;59083;47.974;21.722;2022-10-22T19:09:41;53.00;;;30.10;;
71298;SDS011;59083;47.974;21.722;2022-10-22T19:12:43;50.12;;;29.90;;
71298;SDS011;59083;47.974;21.722;2022-10-22T19:15:44;50.78;;;28.42;;
71298;SDS011;59083;47.974;21.722;2022-10-22T19:18:45;47.05;;;27.75;;
71298;SDS011;59083;47.974;21.722;2022-10-22T19:21:47;46.60;;;26.87;;